Latest Weather Observations for Port Macquarie Airport

IDN60801

Issued at 12:32 pm EST Friday 28 April 2017 (issued every 30 minutes, with the page automatically refreshed every 10 minutes)

About weather observations | Map of weather stations | Latest weather observations for NSW | Other Formats
Station Details ID: 060139 Name: PORT MACQUARIE AIRPORT AWS Lat: -31.43 Lon: 152.87 Height: 4.2 m
Data from the previous 72 hours. | See also: Recent months at Port Macquarie Airport
Date/Time
EST
Temp
°C
App
Temp
°C
Dew
Point
°C
Rel
Hum
%
Delta-T
°C
Wind Press
QNH
hPa
Press
MSL
hPa
Rain since
9am
mm
Dir  Spd
km/h
Gust
km/h
Spd
kts
Gust
kts
28/12:30pm 18.9 14.5 11.7 63 4.0 SSW 26 39 14 21 1018.4 1018.4 0.0
28/12:00pm 19.0 15.0 11.8 63 4.0 SW 24 35 13 19 1018.7 1018.7 0.0
28/11:30am 19.3 14.1 11.6 61 4.2 SW 30 44 16 24 1018.9 1018.9 0.0
28/11:00am 18.9 14.5 11.7 63 4.0 SW 26 35 14 19 1019.2 1019.2 0.0
28/10:30am 18.3 13.0 11.1 63 3.9 SW 30 41 16 22 1019.3 1019.3 0.0
28/10:00am 17.8 12.2 11.6 67 3.4 SW 32 46 17 25 1019.4 1019.4 0.0
28/09:30am 17.4 12.5 11.4 68 3.3 SW 28 44 15 24 1019.2 1019.2 0.0
28/09:00am 17.1 11.8 11.4 69 3.1 SW 30 43 16 23 1019.2 1019.2 0.0
28/08:30am 16.4 11.8 10.9 70 2.9 SW 26 37 14 20 1018.9 1018.9 0.0
28/08:00am 15.9 10.0 10.4 70 2.9 WSW 32 50 17 27 1018.6 1018.6 0.0
28/07:53am 15.8 10.2 10.3 70 2.9 WSW 30 50 16 27 1018.3 1018.3 0.0
28/07:30am 15.5 10.0 10.5 72 2.6 SW 30 46 16 25 1018.2 1018.2 0.0
28/07:00am 15.5 9.9 10.3 71 2.7 SW 30 41 16 22 1017.7 1017.7 0.0
28/06:30am 15.3 9.4 10.3 72 2.6 WSW 32 50 17 27 1017.0 1017.0 0.0
28/06:21am 15.3 10.1 10.3 72 2.6 WSW 28 50 15 27 1017.0 1017.0 0.0
28/06:00am 15.1 9.5 10.3 73 2.5 WSW 30 43 16 23 1016.7 1016.7 0.0
28/05:30am 15.0 9.0 10.2 73 2.5 WSW 32 44 17 24 1016.4 1016.4 0.0
28/05:12am 15.0 9.4 10.2 73 2.5 WSW 30 50 16 27 1016.2 1016.2 0.0
28/05:00am 14.9 9.7 10.1 73 2.5 WSW 28 44 15 24 1016.2 1016.2 0.0
28/04:33am 14.8 9.2 10.2 74 2.4 WSW 30 48 16 26 1015.9 1015.9 0.0
28/04:30am 14.9 9.0 10.3 74 2.4 WSW 32 48 17 26 1015.9 1015.9 0.0
28/04:28am 14.9 9.3 10.1 73 2.5 WSW 30 48 16 26 1015.9 1015.9 0.0
28/04:00am 14.9 9.7 10.1 73 2.5 WSW 28 39 15 21 1015.7 1015.7 0.0
28/03:30am 14.9 9.7 10.1 73 2.5 WSW 28 37 15 20 1015.5 1015.5 0.0
28/03:00am 14.6 10.1 10.2 75 2.3 WSW 24 33 13 18 1015.2 1015.2 0.0
28/02:30am 14.8 9.9 10.0 73 2.5 WSW 26 35 14 19 1015.5 1015.5 0.0
28/02:00am 15.3 10.4 9.9 70 2.8 WSW 26 39 14 21 1015.7 1015.7 0.0
28/01:30am 15.2 11.2 9.1 67 3.1 WSW 20 30 11 16 1015.8 1015.8 0.0
28/01:00am 15.3 11.3 8.3 63 3.5 WSW 19 26 10 14 1016.1 1016.1 0.0
28/12:30am 15.2 10.4 7.5 60 3.8 WSW 22 28 12 15 1016.3 1016.3 0.0
28/12:00am 15.0 11.1 7.3 60 3.8 WSW 17 20 9 11 1016.3 1016.3 0.0
 
Date/Time
EST
Temp
°C
App
Temp
°C
Dew
Point
°C
Rel
Hum
%
Delta-T
°C
Wind Press
QNH
hPa
Press
MSL
hPa
Rain since
9am
mm
Dir  Spd
km/h
Gust
km/h
Spd
kts
Gust
kts
27/11:30pm 14.8 10.6 7.4 61 3.6 WSW 19 26 10 14 1016.5 1016.5 0.0
27/11:00pm 14.1 11.1 7.9 66 3.1 WSW 13 17 7 9 1016.5 1016.5 0.0
27/10:30pm 14.5 11.6 8.0 65 3.2 WSW 13 15 7 8 1016.7 1016.7 0.0
27/10:00pm 14.2 11.7 8.2 67 3.0 WSW 11 13 6 7 1016.6 1016.6 0.0
27/09:30pm 14.1 12.0 8.1 67 3.0 WSW 9 13 5 7 1016.5 1016.5 0.0
27/09:00pm 14.5 12.0 8.2 66 3.1 WSW 11 15 6 8 1016.5 1016.5 0.0
27/08:30pm 15.0 12.1 8.0 63 3.5 WSW 13 17 7 9 1016.4 1016.4 0.0
27/08:00pm 15.1 12.2 8.3 64 3.4 WSW 13 17 7 9 1016.2 1016.2 0.0
27/07:30pm 14.7 12.0 8.9 68 2.9 WSW 13 17 7 9 1016.0 1016.0 0.0
27/07:00pm 15.1 12.7 8.6 65 3.3 W 11 15 6 8 1015.7 1015.7 0.0
27/06:30pm 15.2 12.9 8.9 66 3.2 W 11 15 6 8 1015.5 1015.5 0.0
27/06:00pm 15.7 13.4 8.9 64 3.5 WSW 11 13 6 7 1015.4 1015.4 0.0
27/05:30pm 15.8 13.5 9.0 64 3.5 SW 11 17 6 9 1014.9 1014.9 0.0
27/05:00pm 16.3 13.6 9.0 62 3.8 SW 13 19 7 10 1014.7 1014.7 0.0
27/04:30pm 17.0 13.4 8.2 56 4.5 SW 17 22 9 12 1014.3 1014.3 0.0
27/04:00pm 17.2 13.7 8.9 58 4.3 SW 17 20 9 11 1013.9 1013.9 0.0
27/03:30pm 17.9 13.7 8.2 53 5.0 SW 20 28 11 15 1013.5 1013.5 0.0
27/03:00pm 18.4 14.4 8.9 54 4.9 SW 20 26 11 14 1013.2 1013.2 0.0
27/02:30pm 18.6 14.0 8.3 51 5.3 WSW 22 32 12 17 1013.2 1013.2 0.0
27/02:00pm 19.1 14.2 8.4 50 5.5 SW 24 32 13 17 1012.7 1012.7 0.0
27/01:30pm 19.2 13.5 8.2 49 5.7 SW 28 37 15 20 1012.7 1012.7 0.0
27/01:00pm 19.2 14.4 8.8 51 5.4 WSW 24 33 13 18 1012.9 1012.9 0.0
27/12:30pm 19.0 14.6 8.9 52 5.3 SW 22 32 12 17 1013.0 1013.0 0.0
27/12:00pm 19.3 15.0 9.2 52 5.3 SW 22 33 12 18 1013.0 1013.0 0.0
27/11:30am 19.0 14.6 8.9 52 5.3 WSW 22 35 12 19 1013.0 1013.0 0.0
27/11:00am 18.6 13.4 8.8 53 5.1 SW 26 35 14 19 1013.2 1013.2 0.0
27/10:30am 18.6 13.0 8.8 53 5.1 WSW 28 37 15 20 1013.1 1013.1 0.0
27/10:00am 18.2 12.7 9.0 55 4.8 SW 28 35 15 19 1013.3 1013.3 0.0
27/09:30am 17.4 13.3 8.5 56 4.6 WSW 20 35 11 19 1013.3 1013.3 0.0
27/09:00am 16.4 12.9 8.9 61 3.9 WSW 17 24 9 13 1013.1 1013.1 6.2
27/08:30am 15.6 12.3 8.1 61 3.8 W 15 20 8 11 1013.2 1013.2 6.2
27/08:00am 14.6 11.2 7.6 63 3.5 W 15 20 8 11 1012.9 1012.9 6.2
27/07:30am 13.1 10.0 7.3 68 2.8 W 13 22 7 12 1012.6 1012.6 6.2
27/07:00am 12.6 9.0 6.6 67 2.9 W 15 24 8 13 1012.3 1012.3 6.2
27/06:30am 12.1 8.0 6.4 68 2.7 W 17 22 9 12 1011.8 1011.8 6.2
27/06:00am 11.9 8.2 6.2 68 2.7 W 15 22 8 12 1011.8 1011.8 6.2
27/05:30am 12.1 8.3 5.9 66 2.9 W 15 24 8 13 1011.5 1011.5 6.2
27/05:00am 12.2 8.0 5.8 65 3.0 W 17 20 9 11 1011.0 1011.0 6.2
27/04:30am 12.4 8.6 5.6 63 3.2 W 15 24 8 13 1011.0 1011.0 6.2
27/04:00am 12.5 7.8 5.2 61 3.4 W 19 24 10 13 1010.8 1010.8 6.2
27/03:30am 12.6 9.1 5.3 61 3.4 WNW 13 19 7 10 1010.7 1010.7 6.2
27/03:00am 12.6 9.4 5.3 61 3.4 WNW 11 19 6 10 1010.7 1010.7 6.2
27/02:30am 12.5 9.3 5.2 61 3.4 WNW 11 15 6 8 1010.5 1010.5 6.2
27/02:00am 12.1 8.5 4.8 61 3.3 WNW 13 19 7 10 1010.6 1010.6 6.2
27/01:30am 12.3 8.7 5.0 61 3.4 W 13 20 7 11 1010.5 1010.5 6.2
27/01:00am 12.5 8.5 5.0 60 3.5 W 15 19 8 10 1010.6 1010.6 6.2
27/12:30am 12.6 9.0 4.8 59 3.6 W 13 20 7 11 1010.6 1010.6 6.2
27/12:00am 13.4 9.8 4.8 56 4.0 W 13 20 7 11 1010.7 1010.7 6.2
 
Date/Time
EST
Temp
°C
App
Temp
°C
Dew
Point
°C
Rel
Hum
%
Delta-T
°C
Wind Press
QNH
hPa
Press
MSL
hPa
Rain since
9am
mm
Dir  Spd
km/h
Gust
km/h
Spd
kts
Gust
kts
26/11:30pm 13.3 10.1 5.0 57 3.8 WNW 11 19 6 10 1010.6 1010.6 6.2
26/11:00pm 13.8 9.9 5.2 56 4.0 W 15 20 8 11 1010.4 1010.4 6.2
26/10:30pm 14.0 10.8 6.8 62 3.5 WNW 13 19 7 10 1010.3 1010.3 6.2
26/10:00pm 15.1 11.2 6.9 58 4.0 W 17 22 9 12 1009.9 1009.9 6.2
26/09:30pm 15.9 12.0 6.9 55 4.4 W 17 22 9 12 1009.8 1009.8 6.2
26/09:00pm 16.0 11.9 7.7 58 4.2 W 19 28 10 15 1009.6 1009.6 6.2
26/08:30pm 16.2 12.0 8.4 60 4.0 W 20 35 11 19 1009.3 1009.3 6.2
26/08:00pm 16.7 12.9 8.9 60 4.0 WSW 19 35 10 19 1008.9 1008.9 6.2
26/07:30pm 17.2 13.2 9.1 59 4.2 WSW 20 30 11 16 1008.4 1008.4 6.2
26/07:00pm 17.8 13.5 9.4 58 4.4 W 22 32 12 17 1007.5 1007.5 6.2
26/06:30pm 17.7 14.9 11.3 66 3.5 WSW 17 24 9 13 1006.6 1006.6 6.2
26/06:00pm 17.6 18.8 16.8 95 0.5 SW 6 11 3 6 1005.7 1005.7 6.2
26/05:30pm 18.1 20.0 16.6 91 0.9 W 2 9 1 5 1004.8 1004.8 6.2
26/05:00pm 19.1 20.4 17.1 88 1.2 SSW 6 11 3 6 1004.1 1004.1 6.2
26/04:30pm 19.1 19.7 16.7 86 1.4 NNW 9 15 5 8 1004.1 1004.1 6.2
26/04:00pm 19.2 19.7 16.6 85 1.6 NNW 9 13 5 7 1004.2 1004.2 6.2
26/03:30pm 18.1 17.5 15.7 86 1.4 N 13 17 7 9 1004.2 1004.2 6.2
26/03:00pm 19.3 20.0 18.0 92 0.8 N 11 15 6 8 1003.8 1003.8 6.2
26/02:49pm 19.0 18.9 17.8 93 0.7 N 15 20 8 11 1003.8 1003.8 6.2
26/02:30pm 19.7 21.0 18.4 92 0.8 WNW 9 17 5 9 1004.4 1004.4 5.0
26/02:25pm 19.9 20.3 18.2 90 1.1 WSW 13 19 7 10 1004.5 1004.5 3.4
26/02:00pm 20.4 20.0 18.0 86 1.5 N 17 24 9 13 1004.0 1004.0 1.6
26/01:30pm 19.8 20.3 18.3 91 0.9 N 13 19 7 10 1004.4 1004.4 1.6
26/01:00pm 19.5 20.4 18.5 94 0.6 N 11 17 6 9 1004.7 1004.7 1.6
26/12:30pm 19.9 21.0 18.9 94 0.6 N 11 15 6 8 1005.3 1005.3 1.6
26/12:00pm 19.5 20.1 18.5 94 0.6 N 13 22 7 12 1005.8 1005.8 1.6
26/11:30am 19.2 19.2 18.0 93 0.7 N 15 20 8 11 1006.8 1006.8 1.2
26/11:00am 19.8 20.2 17.2 85 1.6 N 11 17 6 9 1007.5 1007.5 0.0
26/10:30am 19.9 19.5 17.1 84 1.7 N 15 22 8 12 1007.6 1007.6 0.0
26/10:00am 19.3 20.3 17.8 91 0.9 N 9 13 5 7 1007.5 1007.5 0.0
26/09:30am 19.1 20.4 18.4 96 0.4 N 9 13 5 7 1007.7 1007.7 0.0
26/09:00am 18.5 20.0 18.0 97 0.3 NNW 7 11 4 6 1008.4 1008.4 2.8
26/08:30am 18.1 19.6 17.6 97 0.3 NNW 6 7 3 4 1008.6 1008.6 2.8
26/08:00am 18.1 19.4 17.6 97 0.3 NNW 7 11 4 6 1008.9 1008.9 2.8
26/07:30am 17.8 19.2 17.3 97 0.3 NNW 6 7 3 4 1008.8 1008.8 2.8
26/07:00am 17.7 20.2 17.2 97 0.3 CALM 0 0 0 0 1008.9 1008.9 2.8
26/06:30am 17.4 18.6 16.8 96 0.4 NNW 6 9 3 5 1008.9 1008.9 2.8
26/06:00am 17.9 20.4 17.3 96 0.4 CALM 0 2 0 1 1008.5 1008.5 2.8
26/05:30am 17.9 19.2 17.1 95 0.5 NNW 6 7 3 4 1008.8 1008.8 2.8
26/05:00am 18.1 18.6 17.5 96 0.4 NNW 11 13 6 7 1008.8 1008.8 2.8
26/04:30am 18.0 19.3 17.2 95 0.5 NNW 6 9 3 5 1008.4 1008.4 2.8
26/04:00am 18.5 19.5 17.7 95 0.5 N 9 11 5 6 1008.3 1008.3 2.8
26/03:30am 18.7 19.3 17.7 94 0.6 N 11 15 6 8 1008.8 1008.8 2.6
26/03:00am 18.7 19.0 17.9 95 0.5 N 13 15 7 8 1009.4 1009.4 2.6
26/02:30am 18.8 18.8 18.0 95 0.5 N 15 19 8 10 1008.9 1008.9 2.4
26/02:00am 18.8 19.5 18.0 95 0.5 N 11 15 6 8 1009.4 1009.4 2.2
26/01:30am 19.0 20.2 18.3 96 0.4 N 9 13 5 7 1009.5 1009.5 2.0
26/01:00am 18.8 21.7 18.1 96 0.4 CALM 0 0 0 0 1010.0 1010.0 1.8
26/12:30am 19.4 21.4 18.7 96 0.4 NNE 6 11 3 6 1010.2 1010.2 1.6
26/12:00am 19.5 21.3 18.8 96 0.4 NW 7 13 4 7 1010.5 1010.5 1.4
 
Date/Time
EST
Temp
°C
App
Temp
°C
Dew
Point
°C
Rel
Hum
%
Delta-T
°C
Wind Press
QNH
hPa
Press
MSL
hPa
Rain since
9am
mm
Dir  Spd
km/h
Gust
km/h
Spd
kts
Gust
kts
25/11:30pm 19.7 21.2 18.9 95 0.5 NNW 9 11 5 6 1010.5 1010.5 1.4
25/11:00pm 19.8 20.9 18.8 94 0.6 N 11 15 6 8 1010.9 1010.9 1.4
25/10:30pm 20.0 20.8 19.0 94 0.6 N 13 17 7 9 1010.9 1010.9 1.4
25/10:00pm 20.2 21.8 19.2 94 0.6 NNE 9 13 5 7 1011.2 1011.2 1.2
25/09:30pm 20.3 22.4 19.3 94 0.6 NNE 7 9 4 5 1011.7 1011.7 1.2
25/09:00pm 20.5 22.5 19.2 92 0.8 WNW 7 9 4 5 1012.4 1012.4 0.6
25/08:30pm 20.9 22.1 19.0 89 1.2 N 11 15 6 8 1012.1 1012.1 0.0
25/08:00pm 20.6 21.9 18.4 87 1.4 N 9 11 5 6 1011.9 1011.9 0.0
25/07:30pm 20.8 20.6 18.4 86 1.5 NNE 17 22 9 12 1011.4 1011.4 0.0
25/07:00pm 20.7 20.6 17.9 84 1.7 NNE 15 19 8 10 1011.4 1011.4 0.0
25/06:30pm 20.8 20.7 17.8 83 1.9 NNE 15 20 8 11 1011.3 1011.3 0.0
25/06:00pm 21.2 21.5 17.8 81 2.1 NNE 13 19 7 10 1011.0 1011.0 0.0
25/05:30pm 21.8 21.6 17.6 77 2.6 NNE 15 22 8 12 1010.9 1010.9 0.0
25/05:00pm 22.7 21.7 17.6 73 3.2 NNE 19 28 10 15 1011.0 1011.0 0.0
25/04:30pm 23.7 23.2 17.9 70 3.6 NNE 17 26 9 14 1010.9 1010.9 0.0
25/04:00pm 24.5 23.7 18.0 67 4.1 NNE 19 24 10 13 1011.1 1011.1 0.0
25/03:30pm 24.9 23.8 17.4 63 4.7 NNE 19 28 10 15 1011.3 1011.3 0.0
25/03:00pm 25.4 24.3 17.3 61 5.0 NNE 19 24 10 13 1011.4 1011.4 0.0
25/02:30pm 24.8 24.3 17.8 65 4.4 ENE 17 24 9 13 1011.6 1011.6 0.0
25/02:00pm 24.9 24.0 16.9 61 4.9 NE 17 24 9 13 1012.0 1012.0 0.0
25/01:30pm 24.9 23.3 16.1 58 5.4 NNE 19 26 10 14 1012.4 1012.4 0.0
25/01:00pm 24.9 22.9 15.5 56 5.7 N 20 24 11 13 1012.9 1012.9 0.0

Other Formats:

Comma delimited format used in spreadsheet applications
http://www.bom.gov.au/fwo/IDN60801/IDN60801.94786.axf

JavaScript Object Notation format (JSON) in row-major order
http://www.bom.gov.au/fwo/IDN60801/IDN60801.94786.json